Time;durP1;ratioP1;P1;durP2;ratioP2;P2;SDS_P1;SDS_P2;PMS_P1;PMS_P2;Temp;Humidity;BMP_temperature;BMP_pressure;BME280_temperature;BME280_humidity;BME280_pressure;Samples;Min_cycle;Max_cycle;Signal;HPM_P1;HPM_P2
2022/12/04 00:04:01;;;;;;;41.88;17.45;;;;;;;-0.76;100.00;101449.09;10418495;28;20084;-72
2022/12/04 00:09:04;;;;;;;25.08;13.20;;;;;;;-0.79;100.00;101444.75;10418558;28;20524;-72
2022/12/04 00:14:08;;;;;;;33.67;14.30;;;;;;;-0.82;100.00;101443.03;10418445;28;20081;-72
2022/12/04 00:19:10;;;;;;;38.08;17.23;;;;;;;-0.77;100.00;101435.41;10418492;28;20069;-72
2022/12/04 00:24:12;;;;;;;28.17;15.07;;;;;;;-0.80;100.00;101435.34;10417953;28;20145;-72
2022/12/04 00:29:16;;;;;;;39.40;16.55;;;;;;;-0.85;100.00;101431.88;10415817;28;20079;-72
2022/12/04 00:34:18;;;;;;;24.33;11.73;;;;;;;-0.83;100.00;101436.19;10417745;28;20105;-72
2022/12/04 00:39:21;;;;;;;36.20;15.32;;;;;;;-0.84;100.00;101429.34;10418050;28;20067;-72
2022/12/04 00:44:24;;;;;;;38.33;16.48;;;;;;;-0.82;100.00;101426.78;10416762;28;20085;-71
2022/12/04 00:49:26;;;;;;;41.15;17.13;;;;;;;-0.81;100.00;101426.81;10417297;28;20479;-72
2022/12/04 00:54:27;;;;;;;29.63;14.20;;;;;;;-0.80;100.00;101425.97;10414671;28;20062;-72
2022/12/04 00:59:30;;;;;;;32.13;12.50;;;;;;;-0.84;100.00;101418.22;10416845;28;20342;-72
2022/12/04 01:04:32;;;;;;;30.05;15.48;;;;;;;-0.86;100.00;101425.88;10416680;28;20373;-72
2022/12/04 01:09:34;;;;;;;29.87;15.60;;;;;;;-0.84;100.00;101439.59;10416126;28;20113;-72
2022/12/04 01:14:36;;;;;;;23.70;13.17;;;;;;;-0.84;100.00;101439.59;10416127;28;20065;-72
2022/12/04 01:19:39;;;;;;;30.77;13.98;;;;;;;-0.85;100.00;101440.44;10415418;28;20849;-72
2022/12/04 01:24:41;;;;;;;28.65;13.82;;;;;;;-0.81;100.00;101439.63;10413492;28;20141;-72
2022/12/04 01:29:44;;;;;;;33.47;15.30;;;;;;;-0.79;100.00;101437.94;10415194;28;20402;-72
2022/12/04 01:34:46;;;;;;;28.48;15.10;;;;;;;-0.79;100.00;101443.06;10416165;28;20350;-72
2022/12/04 01:39:48;;;;;;;38.03;16.10;;;;;;;-0.74;100.00;101440.59;10413883;28;20489;-72
2022/12/04 01:45:40;;;;;;;33.13;15.57;;;;;;;-0.76;100.00;101438.84;10414468;28;20144;-72
2022/12/04 01:50:44;;;;;;;25.55;14.10;;;;;;;-0.76;100.00;101436.28;10415314;28;20066;-72
2022/12/04 01:55:48;;;;;;;21.20;11.25;;;;;;;-0.82;100.00;101422.50;10411844;28;20073;-73
2022/12/04 02:01:01;;;;;;;37.30;14.32;;;;;;;-0.77;100.00;101425.16;10414052;28;20084;-72
2022/12/04 02:06:03;;;;;;;30.70;16.55;;;;;;;-0.78;100.00;101421.72;10414852;28;20117;-73
2022/12/04 02:11:25;;;;;;;33.30;14.10;;;;;;;-0.78;100.00;101419.16;10414233;28;20067;-72
2022/12/04 02:16:41;;;;;;;30.50;14.23;;;;;;;-0.80;100.00;101423.41;10414235;28;20106;-73
2022/12/04 02:21:48;;;;;;;28.02;14.95;;;;;;;-0.79;100.00;101422.56;10413912;28;20082;-73
2022/12/04 02:26:58;;;;;;;27.00;12.80;;;;;;;-0.83;100.00;101417.38;10411378;28;20064;-73
2022/12/04 02:32:19;;;;;;;28.27;14.27;;;;;;;-0.80;100.00;101425.09;10413271;28;20107;-73
2022/12/04 02:37:30;;;;;;;29.13;13.70;;;;;;;-0.79;100.00;101411.44;10413634;28;20061;-73
2022/12/04 02:42:40;;;;;;;29.10;13.98;;;;;;;-0.81;100.00;101416.56;10413356;28;20094;-73
2022/12/04 02:47:46;;;;;;;33.15;13.80;;;;;;;-0.84;100.00;101408.84;10413374;28;20107;-73
2022/12/04 02:52:54;;;;;;;17.20;9.30;;;;;;;-0.86;100.00;101404.53;10412983;28;20113;-72
2022/12/04 02:58:04;;;;;;;26.30;11.45;;;;;;;-0.83;100.00;101410.53;10410995;28;20571;-73
2022/12/04 03:03:16;;;;;;;31.80;16.10;;;;;;;-0.83;100.00;101400.28;10412565;28;20527;-73
2022/12/04 03:08:26;;;;;;;28.92;13.20;;;;;;;-0.83;100.00;101405.41;10416094;28;20065;-72
2022/12/04 03:13:36;;;;;;;35.55;15.65;;;;;;;-0.81;100.00;101406.31;10420579;28;20076;-72
2022/12/04 03:18:47;;;;;;;30.33;14.32;;;;;;;-0.84;100.00;101413.09;10420936;28;20112;-72
2022/12/04 03:23:56;;;;;;;30.45;15.02;;;;;;;-0.85;100.00;101407.13;10420318;28;20092;-73
2022/12/04 03:29:08;;;;;;;31.80;14.35;;;;;;;-0.85;100.00;101407.13;10418017;28;20116;-73
2022/12/04 03:34:19;;;;;;;28.43;14.03;;;;;;;-0.83;100.00;101402.84;10419805;28;20066;-73
2022/12/04 03:39:30;;;;;;;33.42;17.20;;;;;;;-0.84;100.00;101393.44;10419788;28;20318;-73
2022/12/04 03:44:39;;;;;;;24.13;12.03;;;;;;;-0.87;100.00;101392.53;10419736;28;20090;-73
2022/12/04 03:49:49;;;;;;;32.88;16.92;;;;;;;-0.83;100.00;101394.28;10419352;28;20074;-73
2022/12/04 03:54:59;;;;;;;31.55;14.93;;;;;;;-0.88;100.00;101390.81;10416781;28;20418;-73
2022/12/04 04:00:07;;;;;;;29.80;15.73;;;;;;;-0.85;100.00;101396.00;10419106;28;20158;-73
2022/12/04 04:05:15;;;;;;;32.83;15.70;;;;;;;-0.85;100.00;101383.19;10419064;28;20080;-73
2022/12/04 04:10:21;;;;;;;34.65;15.68;;;;;;;-0.89;100.00;101381.41;10418825;28;20460;-73
2022/12/04 04:26:14;;;;;;;33.53;17.48;;;;;;;-0.83;100.00;101386.59;10416003;28;20091;-73
2022/12/04 04:31:28;;;;;;;28.45;15.60;;;;;;;-0.88;100.00;101381.44;10418285;28;20579;-73
2022/12/04 04:36:41;;;;;;;28.10;14.63;;;;;;;-0.85;100.00;101380.63;10417616;28;20119;-73
2022/12/04 04:41:53;;;;;;;32.80;15.15;;;;;;;-0.87;100.00;101385.72;10417926;28;20085;-73
2022/12/04 04:47:03;;;;;;;16.00;10.60;;;;;;;-0.86;100.00;101384.03;10417503;28;20069;-73
2022/12/04 04:52:09;;;;;;;21.45;12.77;;;;;;;-0.83;100.00;101384.03;10417615;28;20118;-74
2022/12/04 04:57:10;;;;;;;30.25;14.80;;;;;;;-0.81;100.00;101388.38;10414830;28;20076;-73
2022/12/04 05:02:12;;;;;;;31.05;15.35;;;;;;;-0.80;100.00;101390.09;10416310;28;20145;-73
2022/12/04 05:07:15;;;;;;;37.38;15.98;;;;;;;-0.78;100.00;101398.66;10416520;28;20671;-73
2022/12/04 05:12:17;;;;;;;37.53;16.55;;;;;;;-0.75;100.00;101391.84;10416454;28;20072;-73
2022/12/04 05:17:18;;;;;;;31.17;14.07;;;;;;;-0.76;100.00;101395.28;10416109;28;20470;-73
2022/12/04 05:22:26;;;;;;;36.23;15.37;;;;;;;-0.78;100.00;101387.56;10416124;28;20347;-73
2022/12/04 05:27:30;;;;;;;36.72;16.88;;;;;;;-0.73;100.00;101392.72;10413406;28;20085;-73
2022/12/04 05:32:32;;;;;;;33.00;15.10;;;;;;;-0.75;100.00;101396.97;10415356;28;20088;-73
2022/12/04 05:37:38;;;;;;;20.83;11.33;;;;;;;-0.76;100.00;101387.56;10415409;28;20068;-74
2022/12/04 05:42:40;;;;;;;32.35;16.67;;;;;;;-0.76;100.00;101385.00;10415240;28;20102;-73
2022/12/04 05:47:43;;;;;;;35.30;16.63;;;;;;;-0.75;100.00;101376.47;10415060;28;20487;-73
2022/12/04 05:52:46;;;;;;;34.00;17.05;;;;;;;-0.76;100.00;101383.28;10414523;28;20371;-73
2022/12/04 05:57:48;;;;;;;31.65;14.98;;;;;;;-0.75;100.00;101376.47;10412571;28;20103;-73
2022/12/04 06:02:50;;;;;;;33.83;16.03;;;;;;;-0.75;100.00;101371.34;10414142;28;20093;-73
2022/12/04 06:07:54;;;;;;;30.98;15.18;;;;;;;-0.78;100.00;101367.88;10414538;28;20067;-73
2022/12/04 06:12:56;;;;;;;37.47;18.48;;;;;;;-0.73;100.00;101369.66;10413968;28;20125;-73
2022/12/04 06:18:00;;;;;;;30.90;14.90;;;;;;;-0.74;100.00;101370.50;10412856;28;20158;-73
2022/12/04 06:23:03;;;;;;;33.08;14.45;;;;;;;-0.74;100.00;101373.94;10412797;28;20079;-73
2022/12/04 06:28:05;;;;;;;32.58;15.95;;;;;;;-0.72;100.00;101376.53;10410597;28;20105;-73
2022/12/04 06:33:06;;;;;;;33.03;15.68;;;;;;;-0.72;100.00;101376.53;10411080;28;20064;-73
2022/12/04 06:38:12;;;;;;;21.97;12.13;;;;;;;-0.75;100.00;101372.22;10412032;28;20580;-73
2022/12/04 06:43:13;;;;;;;33.03;15.40;;;;;;;-0.70;100.00;101377.38;10415279;28;20603;-73
2022/12/04 06:48:15;;;;;;;31.33;17.13;;;;;;;-0.66;100.00;101381.72;10420762;28;20074;-74
2022/12/04 06:53:18;;;;;;;32.47;15.40;;;;;;;-0.69;100.00;101376.53;10420249;28;20068;-73
2022/12/04 06:58:20;;;;;;;26.80;12.75;;;;;;;-0.66;100.00;101389.41;10418123;28;20061;-73
2022/12/04 07:03:23;;;;;;;39.70;16.23;;;;;;;-0.67;100.00;101390.25;10419787;28;20097;-73
2022/12/04 07:08:26;;;;;;;32.85;16.88;;;;;;;-0.64;100.00;101395.44;10420234;28;20313;-73
2022/12/04 07:13:27;;;;;;;31.42;16.08;;;;;;;-0.66;100.00;101399.66;10419619;28;20064;-73
2022/12/04 07:18:32;;;;;;;38.77;17.20;;;;;;;-0.66;100.00;101402.22;10419339;28;20063;-73
2022/12/04 07:23:36;;;;;;;20.88;13.75;;;;;;;-0.67;100.00;101405.63;10419316;28;20180;-73
2022/12/04 07:28:38;;;;;;;34.03;12.57;;;;;;;-0.65;100.00;101414.22;10416911;28;20058;-73
2022/12/04 07:33:40;;;;;;;36.63;15.45;;;;;;;-0.63;100.00;101409.97;10418806;28;20070;-73
2022/12/04 07:38:44;;;;;;;33.80;15.30;;;;;;;-0.62;100.00;101416.81;10418411;28;20064;-73
2022/12/04 07:43:46;;;;;;;24.42;12.57;;;;;;;-0.63;100.00;101417.66;10418115;28;20445;-73
2022/12/04 07:48:48;;;;;;;31.00;15.57;;;;;;;-0.56;100.00;101416.91;10418461;28;20070;-73
2022/12/04 07:53:53;;;;;;;33.23;15.27;;;;;;;-0.57;100.00;101425.44;10417780;28;20075;-71
2022/12/04 07:58:55;;;;;;;28.77;13.73;;;;;;;-0.62;100.00;101416.81;10415639;28;20073;-73
2022/12/04 08:03:59;;;;;;;30.47;15.97;;;;;;;-0.56;100.00;101424.59;10410145;28;20113;-71
2022/12/04 08:09:05;;;;;;;27.75;14.40;;;;;;;-0.54;100.00;101430.56;10387607;28;20073;-72
2022/12/04 08:14:08;;;;;;;26.45;13.57;;;;;;;-0.47;100.00;101433.25;10416427;28;20496;-71
2022/12/04 08:19:11;;;;;;;27.48;14.77;;;;;;;-0.46;100.00;101428.13;10417199;28;20143;-72
2022/12/04 08:24:14;;;;;;;30.53;16.07;;;;;;;-0.42;100.00;101437.59;10416091;28;20075;-73
2022/12/04 08:29:16;;;;;;;35.63;15.90;;;;;;;-0.43;100.00;101437.56;10414710;28;20071;-72
2022/12/04 08:34:18;;;;;;;29.63;15.00;;;;;;;-0.35;100.00;101433.38;10416078;28;20091;-72
2022/12/04 08:39:21;;;;;;;20.93;12.17;;;;;;;-0.35;100.00;101428.25;10416316;28;20072;-72
2022/12/04 08:44:22;;;;;;;20.80;11.70;;;;;;;-0.36;100.00;101429.13;10415632;28;20082;-72
2022/12/04 08:49:24;;;;;;;30.83;16.40;;;;;;;-0.36;100.00;101426.53;10416574;28;20070;-73
2022/12/04 08:54:27;;;;;;;25.60;13.43;;;;;;;-0.24;100.00;101419.84;10416826;28;20069;-73
2022/12/04 08:59:29;;;;;;;16.50;10.55;;;;;;;-0.22;100.00;101423.28;10415678;28;20124;-72
2022/12/04 09:04:31;;;;;;;24.77;13.40;;;;;;;-0.15;100.00;101415.69;10414883;28;20078;-72
2022/12/04 09:09:35;;;;;;;15.75;8.65;;;;;;;-0.16;100.00;101425.94;10413385;28;20074;-71
2022/12/04 09:14:38;;;;;;;20.08;11.30;;;;;;;-0.08;100.00;101432.00;10415878;28;20523;-71
2022/12/04 09:19:39;;;;;;;24.88;13.70;;;;;;;0.01;100.00;101431.25;10416369;28;20072;-71
2022/12/04 09:24:42;;;;;;;17.37;10.83;;;;;;;-0.08;100.00;101442.25;10412872;28;20114;-72
2022/12/04 09:29:44;;;;;;;34.28;12.57;;;;;;;-0.01;100.00;101444.06;10415877;28;20066;-72
2022/12/04 09:34:47;;;;;;;19.87;10.77;;;;;;;0.08;100.00;101439.88;10415138;28;20094;-72
2022/12/04 09:39:53;;;;;;;11.77;7.47;;;;;;;0.09;100.00;101436.44;10415188;28;20071;-74
2022/12/04 09:45:05;;;;;;;19.08;11.57;;;;;;;0.14;100.00;101432.25;10415005;28;20085;-71
2022/12/04 09:50:18;;;;;;;19.42;10.90;;;;;;;0.09;100.00;101431.31;10414960;28;20475;-71
2022/12/04 09:55:28;;;;;;;19.42;12.05;;;;;;;-0.01;100.00;101430.34;10411944;28;20119;-72
2022/12/04 10:00:32;;;;;;;17.48;10.65;;;;;;;-0.13;100.00;101446.50;10414103;28;20123;-72
2022/12/04 10:05:48;;;;;;;21.13;11.63;;;;;;;-0.16;100.00;101438.75;10412847;28;20079;-72
2022/12/04 10:11:06;;;;;;;21.17;12.05;;;;;;;-0.10;100.00;101449.06;10412697;28;20074;-72
2022/12/04 10:16:17;;;;;;;16.25;9.48;;;;;;;-0.23;100.00;101440.41;10409800;28;20074;-73
2022/12/04 10:21:35;;;;;;;16.55;10.13;;;;;;;-0.21;100.00;101428.44;10413417;28;20071;-72
2022/12/04 10:26:45;;;;;;;13.65;9.05;;;;;;;-0.22;100.00;101429.28;10411353;28;20064;-72
2022/12/04 10:31:54;;;;;;;19.05;9.10;;;;;;;-0.28;100.00;101431.75;10413559;28;20448;-72
2022/12/04 10:37:06;;;;;;;16.58;9.75;;;;;;;-0.29;100.00;101427.47;10413476;28;20058;-72
2022/12/04 10:42:25;;;;;;;20.63;11.90;;;;;;;-0.30;100.00;101444.56;10413074;28;20084;-72
2022/12/04 10:47:27;;;;;;;17.33;10.15;;;;;;;-0.28;100.00;101442.00;10413434;28;20062;-72
2022/12/04 10:52:29;;;;;;;;;;;;;;;-0.29;100.00;101430.91;10413443;28;20061;-72
2022/12/04 10:57:39;;;;;;;22.17;10.40;;;;;;;-0.31;100.00;101424.88;10410904;28;19940;-71
2022/12/04 11:02:41;;;;;;;21.30;9.60;;;;;;;-0.28;100.00;101418.94;10412601;28;20507;-72
2022/12/04 11:07:48;;;;;;;16.73;9.40;;;;;;;-0.16;100.00;101418.22;10412186;28;20083;-73
2022/12/04 11:13:00;;;;;;;18.85;11.35;;;;;;;-0.18;100.00;101412.19;10395140;28;20063;-72
2022/12/04 11:18:16;;;;;;;25.00;12.52;;;;;;;-0.24;100.00;101407.03;10411777;28;20484;-73
2022/12/04 11:23:19;;;;;;;17.67;9.43;;;;;;;-0.27;100.00;101406.13;10411382;28;20604;-72
2022/12/04 11:28:29;;;;;;;17.58;9.57;;;;;;;-0.27;100.00;101395.03;10411759;28;20066;-72
2022/12/04 11:33:38;;;;;;;28.85;15.77;;;;;;;-0.17;100.00;101401.13;10419804;28;20066;-71
2022/12/04 11:38:41;;;;;;;16.70;11.32;;;;;;;-0.21;100.00;101395.06;10420003;28;20062;-72
2022/12/04 11:43:49;;;;;;;20.40;10.88;;;;;;;-0.29;100.00;101397.56;10419259;28;20145;-72
2022/12/04 11:48:53;;;;;;;21.70;12.23;;;;;;;-0.25;100.00;101400.19;10419523;28;20073;-72
2022/12/04 11:54:06;;;;;;;21.13;12.63;;;;;;;-0.22;100.00;101397.63;10419189;28;20070;-72
2022/12/04 11:59:38;;;;;;;20.75;11.90;;;;;;;-0.28;100.00;101404.41;10416643;28;20103;-71
2022/12/04 12:05:08;;;;;;;19.83;11.57;;;;;;;-0.25;100.00;101388.19;10418788;28;20144;-71
2022/12/04 12:10:19;;;;;;;18.70;11.52;;;;;;;-0.24;100.00;101376.22;10418595;28;20138;-72
2022/12/04 12:15:39;;;;;;;21.02;11.63;;;;;;;-0.21;100.00;101373.72;10389654;28;20074;-65
2022/12/04 12:21:02;;;;;;;20.95;11.68;;;;;;;-0.27;100.00;101377.91;10377434;28;20115;-65
2022/12/04 12:26:11;;;;;;;22.23;11.95;;;;;;;-0.23;100.00;101355.72;10374915;28;20107;-65
2022/12/04 12:31:41;;;;;;;20.00;10.82;;;;;;;-0.21;100.00;101363.44;10405845;28;20092;-64
2022/12/04 12:36:49;;;;;;;16.88;10.35;;;;;;;-0.26;100.00;101348.00;10415531;28;20064;-64
2022/12/04 12:41:55;;;;;;;19.92;12.15;;;;;;;-0.17;100.00;101348.06;10415889;28;20078;-63
2022/12/04 12:47:08;;;;;;;20.50;13.20;;;;;;;-0.07;100.00;101349.03;10416263;28;20134;-64
2022/12/04 12:52:24;;;;;;;9.45;7.38;;;;;;;-0.08;100.00;101342.19;10416930;28;20109;-66
2022/12/04 12:57:35;;;;;;;22.05;10.10;;;;;;;-0.13;100.00;101342.13;10414402;28;20113;-64
2022/12/04 13:02:47;;;;;;;22.63;12.18;;;;;;;-0.13;100.00;101347.25;10416374;28;20545;-63
2022/12/04 13:08:00;;;;;;;20.52;10.95;;;;;;;-0.09;100.00;101348.19;10415936;28;20071;-64
2022/12/04 13:13:11;;;;;;;13.00;8.75;;;;;;;-0.08;100.00;101347.31;10409396;28;20124;-63
2022/12/04 13:18:26;;;;;;;14.10;9.27;;;;;;;-0.02;100.00;101347.41;10415281;28;20452;-64
2022/12/04 13:23:50;;;;;;;19.20;11.00;;;;;;;0.02;100.00;101349.97;10414829;28;20439;-65
2022/12/04 13:29:07;;;;;;;12.85;8.13;;;;;;;-0.04;100.00;101350.75;10411378;28;20076;-64
2022/12/04 13:34:37;;;;;;;12.43;8.43;;;;;;;-0.03;100.00;101348.22;10413549;28;20118;-65
2022/12/04 13:40:29;;;;;;;16.55;9.63;;;;;;;-0.01;100.00;101341.41;10415572;28;20070;-65
2022/12/04 13:45:33;;;;;;;16.42;9.77;;;;;;;0.04;100.00;101327.75;10413312;28;20088;-64
2022/12/04 13:50:39;;;;;;;9.32;7.05;;;;;;;0.02;100.00;101335.44;10412256;28;20075;-64
2022/12/04 13:55:42;;;;;;;23.20;11.45;;;;;;;0.02;100.00;101344.84;10409197;28;20103;-63
2022/12/04 14:00:44;;;;;;;14.57;9.55;;;;;;;-0.01;100.00;101341.41;10411929;28;20217;-63
2022/12/04 14:05:49;;;;;;;12.95;8.82;;;;;;;0.01;100.00;101338.84;10410472;28;20575;-64
2022/12/04 14:11:01;;;;;;;16.70;10.23;;;;;;;0.05;100.00;101340.59;10411590;28;20521;-64
2022/12/04 14:16:05;;;;;;;;;;;;;;;0.05;100.00;101330.34;10409941;28;20069;-64
2022/12/04 14:21:08;;;;;;;11.88;8.52;;;;;;;0.10;100.00;101332.97;10412035;28;19948;-64
2022/12/04 14:26:27;;;;;;;18.80;10.20;;;;;;;0.09;100.00;101329.53;10409117;28;20138;-63
2022/12/04 14:31:37;;;;;;;16.05;9.82;;;;;;;0.09;100.00;101332.09;10411022;28;20075;-64
2022/12/04 14:36:47;;;;;;;12.95;8.55;;;;;;;0.11;100.00;101329.53;10411131;28;20067;-64
2022/12/04 14:41:50;;;;;;;14.65;9.43;;;;;;;0.11;100.00;101334.69;10412372;28;20075;-63
2022/12/04 14:46:57;;;;;;;13.65;8.00;;;;;;;0.12;100.00;101326.13;10412902;28;20546;-64
2022/12/04 14:52:14;;;;;;;19.27;6.70;;;;;;;0.14;100.00;101329.56;10412993;28;20070;-64
2022/12/04 14:57:40;;;;;;;15.77;9.32;;;;;;;0.14;100.00;101337.28;10410671;28;20138;-66
2022/12/04 15:02:46;;;;;;;20.10;10.45;;;;;;;0.18;100.00;101340.72;10412483;28;20101;-65
2022/12/04 15:07:54;;;;;;;15.90;10.15;;;;;;;0.19;100.00;101352.69;10421043;28;20064;-65
2022/12/04 15:12:55;;;;;;;13.35;8.70;;;;;;;0.19;100.00;101353.56;10418865;28;20478;-68
2022/12/04 15:17:59;;;;;;;17.20;9.40;;;;;;;0.24;100.00;101362.16;10418810;28;20071;-64
2022/12/04 15:23:03;;;;;;;11.57;6.93;;;;;;;0.17;100.00;101365.50;10418623;28;20716;-65
2022/12/04 15:28:13;;;;;;;17.63;10.35;;;;;;;0.23;100.00;101355.31;10415890;28;20060;-64
2022/12/04 15:33:20;;;;;;;18.23;10.95;;;;;;;0.23;100.00;101350.19;10418077;28;20067;-64
2022/12/04 15:38:23;;;;;;;13.27;8.57;;;;;;;0.22;100.00;101348.47;10417676;28;20065;-65
2022/12/04 15:43:31;;;;;;;14.88;9.65;;;;;;;0.26;100.00;101344.19;10417857;28;20076;-65
2022/12/04 15:48:33;;;;;;;16.38;8.77;;;;;;;0.30;100.00;101350.25;10414412;28;20514;-64
2022/12/04 15:53:39;;;;;;;11.87;8.07;;;;;;;0.27;100.00;101356.19;10418346;28;20564;-66
2022/12/04 15:58:53;;;;;;;24.40;10.43;;;;;;;0.33;100.00;101360.50;10415772;28;20487;-64
2022/12/04 16:03:56;;;;;;;14.48;8.45;;;;;;;0.31;100.00;101360.50;10418191;28;20123;-63
2022/12/04 16:09:12;;;;;;;26.90;13.02;;;;;;;0.35;100.00;101358.84;10418328;28;20068;-64
2022/12/04 16:14:18;;;;;;;19.48;11.18;;;;;;;0.35;100.00;101359.69;10414839;28;20132;-64
2022/12/04 16:19:31;;;;;;;12.82;8.50;;;;;;;0.36;100.00;101360.56;10416949;28;20457;-64
2022/12/04 16:24:36;;;;;;;14.05;9.50;;;;;;;0.42;100.00;101360.63;10415820;28;20078;-65
2022/12/04 16:29:38;;;;;;;16.98;9.68;;;;;;;0.41;100.00;101369.16;10414122;28;20138;-64
2022/12/04 16:34:40;;;;;;;20.50;9.65;;;;;;;0.42;100.00;101364.88;10414186;28;20125;-64
2022/12/04 16:39:44;;;;;;;13.27;8.68;;;;;;;0.41;100.00;101365.72;10413939;28;20587;-64
2022/12/04 16:44:48;;;;;;;15.68;9.35;;;;;;;0.43;100.00;101371.72;10413367;28;20510;-66
2022/12/04 16:49:52;;;;;;;14.50;8.88;;;;;;;0.44;100.00;101378.59;10413951;28;20067;-64
2022/12/04 16:54:56;;;;;;;17.10;10.82;;;;;;;0.46;100.00;101367.50;10411200;28;20075;-64
2022/12/04 16:59:58;;;;;;;17.58;9.77;;;;;;;0.45;100.00;101380.31;10412602;28;20154;-64
2022/12/04 17:04:59;;;;;;;17.13;8.77;;;;;;;0.46;100.00;101376.91;10413129;28;20166;-64
2022/12/04 17:10:05;;;;;;;16.37;8.80;;;;;;;0.42;100.00;101376.03;10412625;28;20493;-64
2022/12/04 17:15:09;;;;;;;16.73;9.93;;;;;;;0.46;100.00;101375.19;10412216;28;20130;-65
2022/12/04 17:20:14;;;;;;;19.70;10.35;;;;;;;0.47;100.00;101384.63;10411533;28;20608;-64
2022/12/04 17:25:17;;;;;;;12.13;6.88;;;;;;;0.45;100.00;101381.16;10409089;28;20094;-64
2022/12/04 17:30:19;;;;;;;13.45;8.68;;;;;;;0.50;100.00;101388.91;10411724;28;20133;-64
2022/12/04 17:35:22;;;;;;;20.15;12.10;;;;;;;0.51;100.00;101391.50;10411840;28;20566;-64
2022/12/04 17:40:25;;;;;;;18.77;11.02;;;;;;;0.54;100.00;101394.97;10411162;28;20100;-64
2022/12/04 17:45:28;;;;;;;22.45;12.30;;;;;;;0.54;100.00;101406.06;10411869;28;20110;-64
2022/12/04 17:50:30;;;;;;;20.63;11.52;;;;;;;0.57;100.00;101405.22;10412593;28;20116;-65
2022/12/04 17:55:35;;;;;;;18.27;11.50;;;;;;;0.54;100.00;101411.22;10406076;28;20067;-64
2022/12/04 18:00:37;;;;;;;22.67;12.82;;;;;;;0.55;100.00;101407.78;10412233;28;20088;-64
2022/12/04 18:05:38;;;;;;;21.75;13.68;;;;;;;0.58;100.00;101412.94;10411628;28;20453;-64
2022/12/04 18:10:41;;;;;;;17.40;11.00;;;;;;;0.56;100.00;101403.50;10411565;28;20415;-63
2022/12/04 18:15:44;;;;;;;20.35;13.02;;;;;;;0.58;100.00;101412.13;10411643;28;20313;-64
2022/12/04 18:20:46;;;;;;;21.33;12.20;;;;;;;0.57;100.00;101403.53;10412065;28;20074;-64
2022/12/04 18:25:55;;;;;;;21.27;12.80;;;;;;;0.58;100.00;101389.00;10409504;28;20118;-64
2022/12/04 18:31:03;;;;;;;26.08;12.63;;;;;;;0.56;100.00;101395.81;10411722;28;20468;-65
2022/12/04 18:36:08;;;;;;;20.90;12.23;;;;;;;0.56;100.00;101398.38;10411281;28;20076;-64
2022/12/04 18:41:14;;;;;;;26.08;12.27;;;;;;;0.54;100.00;101397.53;10410387;28;20107;-64
2022/12/04 18:46:17;;;;;;;25.08;12.10;;;;;;;0.49;100.00;101393.22;10409448;28;20490;-63
2022/12/04 18:51:22;;;;;;;28.65;12.40;;;;;;;0.49;100.00;101394.91;10371101;28;20072;-64
2022/12/04 18:56:27;;;;;;;34.05;14.18;;;;;;;0.48;100.00;101391.47;10380108;28;20465;-65
2022/12/04 19:01:30;;;;;;;24.90;14.00;;;;;;;0.47;100.00;101384.63;10398691;28;20136;-65
2022/12/04 19:06:35;;;;;;;23.67;12.48;;;;;;;0.45;100.00;101388.88;10409082;28;20082;-65
2022/12/04 19:11:40;;;;;;;29.83;13.75;;;;;;;0.42;100.00;101394.00;10408573;28;20143;-65
2022/12/04 19:16:42;;;;;;;22.27;12.88;;;;;;;0.44;100.00;101394.84;10408323;28;20648;-65
2022/12/04 19:21:44;;;;;;;15.52;10.27;;;;;;;0.43;100.00;101403.41;10409026;28;20060;-64
2022/12/04 19:26:48;;;;;;;20.83;11.90;;;;;;;0.46;100.00;101397.44;10408085;28;20559;-65
2022/12/04 19:31:50;;;;;;;21.60;12.57;;;;;;;0.45;100.00;101406.84;10408650;28;20124;-65
2022/12/04 19:36:54;;;;;;;21.73;11.10;;;;;;;0.47;100.00;101407.72;10408129;28;20063;-64
2022/12/04 19:41:58;;;;;;;22.40;10.38;;;;;;;0.44;100.00;101401.72;10407423;28;20327;-63
2022/12/04 19:47:00;;;;;;;18.63;10.38;;;;;;;0.45;100.00;101404.28;10406927;28;20711;-64
2022/12/04 19:52:02;;;;;;;25.87;13.30;;;;;;;0.49;100.00;101408.63;10413807;28;20120;-64
2022/12/04 19:57:05;;;;;;;22.88;11.77;;;;;;;0.49;100.00;101407.75;10411487;28;20068;-64
2022/12/04 20:02:09;;;;;;;23.55;10.70;;;;;;;0.49;100.00;101413.75;10417465;28;20094;-64
2022/12/04 20:07:12;;;;;;;17.40;10.20;;;;;;;0.50;100.00;101410.34;10417383;28;20244;-64
2022/12/04 20:12:15;;;;;;;17.38;10.63;;;;;;;0.53;100.00;101414.63;10417124;28;20068;-64
2022/12/04 20:17:18;;;;;;;19.80;10.13;;;;;;;0.54;100.00;101412.94;10416846;28;20070;-65
2022/12/04 20:22:20;;;;;;;23.48;9.45;;;;;;;0.50;100.00;101410.34;10416872;28;20062;-64
2022/12/04 20:27:24;;;;;;;21.53;10.80;;;;;;;0.50;100.00;101407.75;10413679;28;20539;-64
2022/12/04 20:32:25;;;;;;;29.98;14.02;;;;;;;0.53;100.00;101411.19;10416189;28;20206;-64
2022/12/04 20:37:28;;;;;;;20.97;10.90;;;;;;;0.55;100.00;101412.06;10416291;28;20061;-64
2022/12/04 20:42:31;;;;;;;21.70;10.68;;;;;;;0.55;100.00;101406.94;10416185;28;20064;-64
2022/12/04 20:47:35;;;;;;;22.75;11.07;;;;;;;0.58;100.00;101406.97;10414692;28;20197;-64
2022/12/04 20:52:37;;;;;;;21.80;9.55;;;;;;;0.57;100.00;101411.25;10414664;28;20453;-64
2022/12/04 20:57:41;;;;;;;20.83;10.45;;;;;;;0.57;100.00;101415.50;10413054;28;20483;-65
2022/12/04 21:02:43;;;;;;;20.48;11.20;;;;;;;0.60;100.00;101420.69;10414463;28;20093;-65
2022/12/04 21:07:44;;;;;;;26.63;12.43;;;;;;;0.58;100.00;101414.69;10416395;28;20180;-65
2022/12/04 21:18:07;;;;;;;18.88;10.02;;;;;;;0.60;100.00;101423.25;10415788;28;20825;-65
2022/12/04 21:23:09;;;;;;;22.45;10.77;;;;;;;0.59;100.00;101419.84;10415930;28;20066;-64
2022/12/04 21:28:13;;;;;;;18.17;11.45;;;;;;;0.61;100.00;101417.25;10413759;28;20082;-64
2022/12/04 21:33:15;;;;;;;30.00;12.68;;;;;;;0.62;100.00;101409.56;10415561;28;20123;-65
2022/12/04 21:38:18;;;;;;;22.20;12.80;;;;;;;0.62;100.00;101414.69;10414980;28;20084;-64
2022/12/04 21:43:21;;;;;;;19.52;11.10;;;;;;;0.62;100.00;101414.69;10415186;28;20084;-65
2022/12/04 21:48:22;;;;;;;16.85;10.05;;;;;;;0.57;100.00;101415.50;10414672;28;20075;-64
2022/12/04 21:53:24;;;;;;;26.47;13.30;;;;;;;0.63;100.00;101407.88;10412959;28;20065;-65
2022/12/04 21:58:27;;;;;;;27.58;13.15;;;;;;;0.64;100.00;101413.03;10410228;28;20315;-65
2022/12/04 22:03:31;;;;;;;21.25;11.75;;;;;;;0.62;100.00;101409.56;10412562;28;20095;-65
2022/12/04 22:08:35;;;;;;;28.95;13.65;;;;;;;0.63;100.00;101415.56;10412853;28;20606;-65
2022/12/04 22:13:39;;;;;;;24.50;10.70;;;;;;;0.60;100.00;101412.97;10412038;28;20097;-65
2022/12/04 22:18:42;;;;;;;21.77;11.35;;;;;;;0.64;100.00;101417.28;10412212;28;20059;-65
2022/12/04 22:23:44;;;;;;;28.90;13.73;;;;;;;0.66;100.00;101414.72;10411832;28;20117;-66
2022/12/04 22:28:48;;;;;;;23.30;12.33;;;;;;;0.65;100.00;101424.13;10409465;28;20082;-66
2022/12/04 22:33:52;;;;;;;21.80;11.85;;;;;;;0.67;100.00;101424.16;10411364;28;20385;-65
2022/12/04 22:38:54;;;;;;;24.50;12.40;;;;;;;0.70;100.00;101421.63;10411336;28;20070;-65
2022/12/04 22:43:57;;;;;;;29.40;13.30;;;;;;;0.66;100.00;101425.88;10411479;28;20059;-65
2022/12/04 22:49:00;;;;;;;26.35;12.75;;;;;;;0.67;100.00;101421.59;10412611;28;20057;-65
2022/12/04 22:54:01;;;;;;;23.08;12.60;;;;;;;0.66;100.00;101425.00;10413309;28;20515;-65
2022/12/04 22:59:04;;;;;;;22.23;11.80;;;;;;;0.69;100.00;101420.78;10410878;28;20135;-65
2022/12/04 23:04:06;;;;;;;32.22;15.98;;;;;;;0.69;100.00;101425.91;10411691;28;20110;-65
2022/12/04 23:09:13;;;;;;;23.50;13.60;;;;;;;0.71;100.00;101429.34;10410705;28;20079;-65